Badger, Canada
Current Conditions -  °F | °C
As of 11:00 PM on Friday 31 Oct 2014 (Local Time) from CYDF Reporting Station
Broken Clouds Broken Clouds  
Wind Chill: 36°   Ceiling: 3400
Heat Index: 41°   Visibility: 15mi
Dew Point: 32°   Wind: 7mph
Humidity: 70%   Direction: 240°WSW
Pressure: 30.11"   Gusts: NA
Location:  48.97°N, 56.07°W
Report Text: CYDF 010100Z 24006KT 15SM BKN034 05/M00 A3011 RMK SC7 SLP197
Loading
Personal Weather Stations






























Interactive Weather Map
Tropical Storm Tracking
New forecast layout! Learn more

10-Day Weather Forecast

Advertisements
Track Severe Weather on mobile